Time;durP1;ratioP1;P1;durP2;ratioP2;P2;SDS_P1;SDS_P2;PMS_P1;PMS_P2;Temp;Humidity;BMP_temperature;BMP_pressure;BME280_temperature;BME280_humidity;BME280_pressure;Samples;Min_cycle;Max_cycle;Signal;HPM_P1;HPM_P2
2022/10/21 05:56:57;;;;;;;9.43;6.30;;;;;;;15.79;90.90;99338.59;1086721;54;20034;-86
2022/10/21 05:57:58;;;;;;;11.05;6.78;;;;;;;15.85;90.62;99343.22;1089381;47;20031;-87
2022/10/21 05:59:02;;;;;;;10.68;7.10;;;;;;;15.84;90.45;99346.94;1091115;46;20030;-85
2022/10/21 06:00:06;;;;;;;12.48;6.65;;;;;;;15.93;90.33;99339.53;1088230;54;20045;-87
2022/10/21 06:01:11;;;;;;;11.10;6.65;;;;;;;15.92;90.12;99343.28;1088240;54;20019;-87
2022/10/21 06:02:21;;;;;;;9.65;6.95;;;;;;;15.85;90.47;99334.31;1087809;54;20018;-81
2022/10/21 06:03:28;;;;;;;20.00;7.93;;;;;;;15.88;90.68;99340.13;1087376;54;20761;-84
2022/10/21 06:05:36;;;;;;;15.50;7.78;;;;;;;15.81;91.38;99344.63;1087311;54;20033;-79
2022/10/21 06:06:37;;;;;;;12.77;7.47;;;;;;;15.91;91.45;99341.59;1087314;54;20034;-80
2022/10/21 06:07:41;;;;;;;11.80;7.07;;;;;;;15.96;91.01;99336.47;1087237;54;20046;-79
2022/10/21 06:08:43;;;;;;;10.85;6.93;;;;;;;15.90;91.00;99337.22;1087306;54;20046;-78
2022/10/21 06:09:47;;;;;;;12.13;7.60;;;;;;;15.87;91.56;99338.47;1087334;54;20034;-78
2022/10/21 06:10:49;;;;;;;11.02;7.55;;;;;;;15.98;90.80;99341.66;1087295;54;21017;-80
2022/10/21 06:11:56;;;;;;;14.00;8.07;;;;;;;15.96;91.01;99335.63;1087406;54;20031;-79
2022/10/21 06:12:58;;;;;;;17.75;8.20;;;;;;;15.90;91.68;99346.16;1087251;54;20034;-80
2022/10/21 06:14:02;;;;;;;14.57;7.78;;;;;;;15.82;92.11;99338.19;1087305;54;20035;-79
2022/10/21 06:15:04;;;;;;;14.90;8.27;;;;;;;15.88;91.73;99333.91;1087261;54;20806;-81
2022/10/21 06:16:10;;;;;;;10.80;6.47;;;;;;;15.96;91.13;99336.47;1087160;54;20172;-79
2022/10/21 06:17:11;;;;;;;12.93;6.30;;;;;;;15.94;91.19;99333.13;1087270;54;20715;-80
2022/10/21 06:18:15;;;;;;;14.23;6.57;;;;;;;15.94;91.45;99348.44;1087289;54;20034;-79
2022/10/21 06:19:17;;;;;;;13.02;7.18;;;;;;;16.04;90.88;99344.41;1087323;54;20069;-79
2022/10/21 06:20:21;;;;;;;11.65;7.32;;;;;;;16.03;91.30;99348.13;1087343;54;20030;-79
2022/10/21 06:21:22;;;;;;;14.88;7.63;;;;;;;16.00;91.21;99340.41;1087234;54;20270;-79
2022/10/21 06:22:27;;;;;;;12.80;7.32;;;;;;;16.05;91.08;99342.53;1087189;54;20041;-79
2022/10/21 06:23:29;;;;;;;14.07;7.30;;;;;;;16.09;90.87;99345.66;1090281;39;20746;-79
2022/10/21 06:24:33;;;;;;;14.07;6.97;;;;;;;16.08;91.02;99350.22;1088121;39;20314;-79
2022/10/21 06:25:34;;;;;;;12.65;7.20;;;;;;;16.03;91.21;99353.50;1087322;54;20061;-80
2022/10/21 06:26:39;;;;;;;9.93;6.50;;;;;;;16.02;91.11;99353.69;1087253;54;20086;-79
2022/10/21 06:27:43;;;;;;;11.25;6.65;;;;;;;16.09;90.95;99353.72;1087217;54;20114;-79
2022/10/21 06:28:47;;;;;;;15.32;7.38;;;;;;;16.11;91.03;99357.06;1087293;54;20069;-79
2022/10/21 06:29:48;;;;;;;11.65;6.47;;;;;;;16.05;91.23;99351.47;1087351;54;20057;-79
2022/10/21 06:30:53;;;;;;;17.20;7.47;;;;;;;16.01;91.29;99347.47;1087377;39;20813;-80
2022/10/21 06:31:54;;;;;;;11.60;6.38;;;;;;;16.03;91.16;99348.13;1087385;54;20038;-80
2022/10/21 06:32:58;;;;;;;13.07;6.38;;;;;;;15.97;91.39;99346.19;1087297;54;20027;-80
2022/10/21 06:34:00;;;;;;;10.73;6.03;;;;;;;16.13;90.91;99344.25;1087365;54;20038;-80
2022/10/21 06:35:04;;;;;;;11.55;5.85;;;;;;;16.14;90.34;99345.91;1087213;54;20045;-81
2022/10/21 06:36:06;;;;;;;13.15;6.45;;;;;;;16.19;90.11;99343.44;1087362;54;20058;-80
2022/10/21 06:37:10;;;;;;;11.20;5.32;;;;;;;16.23;89.75;99342.00;1087282;54;20029;-79
2022/10/21 06:38:12;;;;;;;11.88;6.10;;;;;;;16.31;89.03;99338.31;1087289;54;20057;-79
2022/10/21 06:39:16;;;;;;;8.85;4.95;;;;;;;16.30;89.12;99339.34;1087288;54;20035;-79
2022/10/21 06:40:18;;;;;;;9.65;5.95;;;;;;;16.34;89.09;99336.03;1087269;54;20065;-78
2022/10/21 06:41:22;;;;;;;8.63;4.95;;;;;;;16.35;88.59;99334.19;1087310;54;20038;-80
2022/10/21 06:42:23;;;;;;;10.57;5.65;;;;;;;16.35;88.69;99336.88;1087226;54;20523;-79
2022/10/21 06:43:31;;;;;;;11.52;5.60;;;;;;;16.33;88.66;99331.69;1087323;54;20118;-79
2022/10/21 06:44:35;;;;;;;10.80;5.93;;;;;;;16.34;88.95;99338.72;1089790;39;20684;-79
2022/10/21 06:45:37;;;;;;;13.70;6.10;;;;;;;16.36;88.58;99328.59;1087377;54;20041;-79
2022/10/21 06:46:41;;;;;;;10.10;5.53;;;;;;;16.42;88.50;99323.44;1087351;54;20037;-81
2022/10/21 06:47:42;;;;;;;10.23;5.68;;;;;;;16.41;88.47;99322.59;1087303;54;20046;-81
2022/10/21 06:48:47;;;;;;;13.93;6.35;;;;;;;16.43;88.09;99333.19;1089313;39;20750;-79
2022/10/21 06:49:51;;;;;;;11.70;6.05;;;;;;;16.44;88.26;99324.91;1087317;54;20816;-79
2022/10/21 06:50:56;;;;;;;9.43;5.50;;;;;;;16.49;87.88;99324.28;1087316;54;20046;-79
2022/10/21 06:52:00;;;;;;;11.13;5.03;;;;;;;16.51;88.02;99323.03;1087284;54;20018;-78
2022/10/21 06:53:02;;;;;;;15.98;6.68;;;;;;;16.52;87.74;99326.59;1088685;39;20615;-79
2022/10/21 06:54:06;;;;;;;21.48;7.45;;;;;;;16.53;87.82;99337.19;1087360;54;20034;-78
2022/10/21 06:55:09;;;;;;;15.70;7.20;;;;;;;16.57;87.37;99337.59;1087470;54;20042;-81
2022/10/21 06:56:15;;;;;;;12.63;6.50;;;;;;;16.54;87.58;99346.09;1087489;54;20031;-78
2022/10/21 06:57:16;;;;;;;17.83;7.10;;;;;;;16.43;87.90;99357.47;1087254;54;20034;-78
2022/10/21 06:58:20;;;;;;;15.68;6.70;;;;;;;16.54;87.97;99359.56;1087339;54;20017;-78
2022/10/21 06:59:24;;;;;;;16.25;6.57;;;;;;;16.40;88.07;99363.25;1087349;54;20022;-79
2022/10/21 07:00:29;;;;;;;16.88;6.13;;;;;;;16.50;88.01;99371.81;1087326;54;20102;-78
2022/10/21 07:01:35;;;;;;;12.35;5.47;;;;;;;16.49;87.85;99365.56;1087321;54;20038;-77
2022/10/21 07:02:37;;;;;;;10.05;5.40;;;;;;;16.52;87.72;99361.66;1087252;54;20821;-78
2022/10/21 07:03:41;;;;;;;11.32;4.95;;;;;;;16.55;87.75;99353.16;1087289;54;20061;-78
2022/10/21 07:04:47;;;;;;;9.30;5.18;;;;;;;16.56;87.75;99352.13;1087195;54;20034;-78
2022/10/21 07:05:56;;;;;;;9.68;5.07;;;;;;;16.56;87.72;99351.31;1087318;54;20042;-78
2022/10/21 07:07:00;;;;;;;8.98;4.68;;;;;;;16.55;87.53;99353.16;1087219;54;20037;-78
2022/10/21 07:08:01;;;;;;;8.10;4.75;;;;;;;16.55;87.32;99350.44;1090138;46;20042;-78
2022/10/21 07:09:07;;;;;;;10.27;5.18;;;;;;;16.59;87.18;99351.72;1087235;54;20031;-78
2022/10/21 07:10:09;;;;;;;8.60;4.68;;;;;;;16.54;87.50;99362.28;1087306;54;20058;-78
2022/10/21 07:11:15;;;;;;;9.80;4.35;;;;;;;16.52;87.57;99372.47;1087276;54;20061;-78
2022/10/21 07:13:39;;;;;;;11.73;5.05;;;;;;;16.45;88.18;99395.84;1086891;54;20034;-78
2022/10/21 07:14:45;;;;;;;12.55;5.38;;;;;;;16.38;88.19;99415.53;1087165;54;20051;-79
2022/10/21 07:15:47;;;;;;;11.52;5.30;;;;;;;16.21;89.36;99417.69;1087362;54;20031;-78
2022/10/21 07:16:52;;;;;;;14.35;6.10;;;;;;;16.21;89.85;99430.34;1087181;54;20709;-78
2022/10/21 07:17:59;;;;;;;13.88;5.78;;;;;;;16.06;90.66;99431.28;1087250;54;20057;-78
2022/10/21 07:19:05;;;;;;;11.60;5.28;;;;;;;16.28;89.45;99428.53;1087277;54;20115;-78
2022/10/21 07:20:10;;;;;;;11.70;6.03;;;;;;;16.24;89.64;99418.34;1087349;54;20042;-79
2022/10/21 07:21:16;;;;;;;9.65;5.43;;;;;;;16.36;88.95;99412.19;1087289;54;20113;-78
2022/10/21 07:22:20;;;;;;;13.57;6.20;;;;;;;16.37;88.81;99411.16;1087281;54;20046;-78
2022/10/21 07:23:21;;;;;;;10.73;5.28;;;;;;;16.43;88.73;99400.63;1087267;54;20030;-81
2022/10/21 07:24:25;;;;;;;10.13;4.65;;;;;;;16.44;88.43;99386.94;1087341;54;20031;-80
2022/10/21 07:25:27;;;;;;;8.93;4.82;;;;;;;16.45;88.26;99377.81;1087350;54;20061;-78
2022/10/21 07:26:34;;;;;;;7.78;4.18;;;;;;;16.44;88.14;99370.75;1087363;54;20038;-77
2022/10/21 07:27:38;;;;;;;12.23;4.55;;;;;;;16.40;88.47;99372.16;1087172;54;20034;-79
2022/10/21 07:28:40;;;;;;;11.32;4.60;;;;;;;16.40;88.76;99379.44;1087288;54;20034;-79
2022/10/21 07:29:47;;;;;;;8.93;4.60;;;;;;;16.45;88.66;99376.97;1087323;54;20030;-79
2022/10/21 07:30:49;;;;;;;7.72;4.40;;;;;;;16.45;88.54;99372.41;1087255;54;20043;-77
2022/10/21 07:31:53;;;;;;;10.07;4.95;;;;;;;16.47;88.62;99369.50;1087276;54;20079;-78
2022/10/21 07:32:54;;;;;;;9.30;4.70;;;;;;;16.53;88.21;99376.81;1087252;54;20130;-78
2022/10/21 07:33:58;;;;;;;11.80;4.93;;;;;;;16.50;88.39;99374.50;1087255;54;20721;-78
2022/10/21 07:35:00;;;;;;;10.40;4.95;;;;;;;16.47;88.71;99369.50;1087224;54;20065;-78
2022/10/21 07:36:06;;;;;;;12.48;5.65;;;;;;;16.44;88.75;99364.50;1087235;54;20053;-78
2022/10/21 07:37:10;;;;;;;10.63;5.50;;;;;;;16.51;88.66;99354.59;1087243;54;20788;-79
2022/10/21 07:38:11;;;;;;;10.00;4.82;;;;;;;16.52;88.20;99349.00;1087214;54;20038;-77
2022/10/21 07:39:18;;;;;;;10.95;5.57;;;;;;;16.49;88.35;99348.56;1087291;54;20086;-78
2022/10/21 07:40:22;;;;;;;11.07;5.88;;;;;;;16.49;88.50;99353.97;1087212;54;20069;-78
2022/10/21 07:41:26;;;;;;;9.73;5.00;;;;;;;16.53;88.38;99347.16;1087231;54;20039;-77
2022/10/21 07:42:30;;;;;;;11.55;5.22;;;;;;;16.50;88.28;99342.16;1087152;54;20018;-78
2022/10/21 07:43:32;;;;;;;12.80;5.45;;;;;;;16.54;88.25;99338.00;1087122;54;20061;-78
2022/10/21 07:44:36;;;;;;;11.07;4.93;;;;;;;16.61;87.95;99338.88;1087198;54;20137;-78
2022/10/21 07:45:41;;;;;;;9.73;4.63;;;;;;;16.60;87.86;99334.50;1087228;54;20018;-78
2022/10/21 07:46:46;;;;;;;10.52;4.72;;;;;;;16.63;87.79;99334.09;1087231;54;20030;-78
2022/10/21 07:47:48;;;;;;;11.35;5.40;;;;;;;16.68;88.02;99337.03;1088618;39;20642;-78
2022/10/21 07:48:52;;;;;;;11.93;5.82;;;;;;;16.67;87.80;99338.06;1087143;54;20848;-78
2022/10/21 07:49:56;;;;;;;7.70;4.15;;;;;;;16.64;87.65;99341.16;1087134;54;20034;-78
2022/10/21 07:51:02;;;;;;;11.15;5.03;;;;;;;16.59;87.98;99346.34;1087133;54;20046;-77
2022/10/21 07:52:06;;;;;;;11.57;4.40;;;;;;;16.63;87.74;99352.97;1087249;54;20110;-78
2022/10/21 07:53:08;;;;;;;11.30;4.55;;;;;;;16.62;87.86;99347.78;1087224;54;20038;-78
2022/10/21 07:54:13;;;;;;;8.77;4.65;;;;;;;16.68;87.47;99355.06;1087175;54;20031;-78
2022/10/21 07:55:16;;;;;;;10.18;4.35;;;;;;;16.52;88.40;99372.47;1087136;54;20061;-78
2022/10/21 07:56:22;;;;;;;9.77;4.47;;;;;;;16.52;88.85;99377.84;1087201;54;20030;-78
2022/10/21 07:57:24;;;;;;;14.85;5.88;;;;;;;16.42;89.09;99382.78;1087168;54;20050;-78
2022/10/21 07:58:28;;;;;;;12.57;5.57;;;;;;;16.52;88.86;99380.56;1088344;46;20041;-77
2022/10/21 07:59:32;;;;;;;12.23;5.22;;;;;;;16.51;88.98;99387.78;1087131;54;20034;-78
2022/10/21 08:00:34;;;;;;;10.45;5.25;;;;;;;16.49;88.82;99405.22;1087238;54;20030;-78
2022/10/21 08:01:42;;;;;;;14.93;6.13;;;;;;;16.45;89.71;99401.25;1087271;54;20034;-78
2022/10/21 08:02:47;;;;;;;14.82;5.50;;;;;;;16.50;88.88;99390.69;1087327;54;20042;-78
2022/10/21 08:03:53;;;;;;;12.20;6.25;;;;;;;16.55;88.91;99384.72;1087233;54;20076;-79
2022/10/21 08:04:57;;;;;;;13.55;6.00;;;;;;;16.44;89.56;99391.47;1087054;54;20947;-78
2022/10/21 08:05:59;;;;;;;12.27;6.45;;;;;;;16.55;88.84;99401.72;1087363;54;20030;-78
2022/10/21 08:07:03;;;;;;;12.40;5.78;;;;;;;16.47;89.29;99407.28;1087404;54;20038;-78
2022/10/21 08:08:04;;;;;;;14.07;6.13;;;;;;;16.47;89.60;99394.63;1087360;54;20042;-77
2022/10/21 08:09:09;;;;;;;11.93;5.47;;;;;;;16.54;89.46;99378.47;1087607;54;20031;-79
2022/10/21 08:10:10;;;;;;;15.25;5.85;;;;;;;16.56;89.17;99378.28;1087699;54;20035;-77
2022/10/21 08:11:21;;;;;;;10.00;5.28;;;;;;;16.50;89.22;99383.44;1087689;54;20030;-78
2022/10/21 08:12:25;;;;;;;10.10;4.90;;;;;;;16.51;89.55;99378.88;1087544;54;20149;-80
2022/10/21 08:13:27;;;;;;;9.00;4.68;;;;;;;16.53;89.38;99374.13;1089960;46;20039;-78
2022/10/21 08:14:31;;;;;;;11.45;4.90;;;;;;;16.53;89.77;99376.81;1087670;54;20041;-80
2022/10/21 08:15:41;;;;;;;8.32;4.60;;;;;;;16.56;89.28;99371.00;1087654;54;20014;-78
2022/10/21 08:16:52;;;;;;;12.35;5.07;;;;;;;16.59;89.59;99367.91;1089653;46;20011;-79
2022/10/21 08:17:53;;;;;;;8.38;4.35;;;;;;;16.65;88.93;99368.97;1088135;54;20022;-82
2022/10/21 08:18:58;;;;;;;11.57;4.85;;;;;;;16.61;89.01;99360.47;1088359;54;20090;-81
2022/10/21 08:19:59;;;;;;;10.70;4.30;;;;;;;16.67;89.14;99364.22;1092108;46;20042;-82
2022/10/21 08:21:05;;;;;;;9.48;5.00;;;;;;;16.65;89.31;99361.72;1088330;54;20041;-83
2022/10/21 08:22:09;;;;;;;10.52;4.50;;;;;;;16.69;89.27;99373.78;1088244;54;20038;-82
2022/10/21 08:23:13;;;;;;;8.32;4.15;;;;;;;16.69;89.14;99371.06;1090002;46;20065;-83
2022/10/21 12:49:03;;;;;;;11.73;4.18;;;;;;;18.01;86.55;99450.16;1086956;54;20041;-81
2022/10/21 13:28:20;;;;;;;10.10;3.05;;;;;;;18.61;79.57;99424.91;1087423;54;20038;-82
2022/10/21 13:29:45;;;;;;;6.72;2.22;;;;;;;18.82;78.98;99430.00;1087518;54;20070;-80
2022/10/21 13:30:58;;;;;;;6.82;2.30;;;;;;;18.83;78.50;99420.84;1088335;39;20551;-79
2022/10/21 13:34:01;;;;;;;5.47;2.15;;;;;;;18.81;77.90;99420.22;1088579;47;20082;-79
2022/10/21 13:38:11;;;;;;;5.13;2.00;;;;;;;18.94;77.03;99422.06;1084957;54;21787;-78
2022/10/21 13:39:30;;;;;;;4.63;1.70;;;;;;;18.77;76.08;99410.03;1087962;47;20559;-78
2022/10/21 13:40:40;;;;;;;5.75;1.80;;;;;;;18.91;76.17;99410.81;1087435;54;20078;-80
2022/10/21 13:41:42;;;;;;;5.45;1.80;;;;;;;18.97;76.30;99404.59;1083094;54;20073;-79
2022/10/21 13:42:50;;;;;;;5.68;1.70;;;;;;;18.83;76.55;99411.91;1083355;54;20038;-78
2022/10/21 13:44:00;;;;;;;3.22;1.45;;;;;;;19.03;75.41;99406.44;1083759;39;20556;-81
2022/10/21 13:45:04;;;;;;;;;;;;;;;18.79;75.17;99397.13;1083225;54;20145;-79
2022/10/21 13:46:16;;;;;;;4.45;1.75;;;;;;;18.98;75.63;99401.66;1083850;39;20314;-78
2022/10/21 13:47:24;;;;;;;4.00;1.75;;;;;;;19.03;75.75;99398.31;1082974;54;20114;-81
2022/10/21 13:48:28;;;;;;;5.53;1.58;;;;;;;19.00;75.59;99399.56;1083491;47;20042;-79
2022/10/21 13:49:32;;;;;;;5.20;1.58;;;;;;;19.01;75.37;99406.66;1083921;54;20026;-78
2022/10/21 13:50:40;;;;;;;4.75;1.75;;;;;;;18.90;74.78;99409.16;1082979;47;20042;-78
2022/10/21 13:51:45;;;;;;;6.88;1.70;;;;;;;18.94;74.71;99399.59;1082749;54;20054;-79
2022/10/21 13:52:49;;;;;;;4.15;1.60;;;;;;;19.07;74.77;99404.97;1082775;54;20034;-79
2022/10/21 13:53:57;;;;;;;4.22;1.48;;;;;;;19.17;74.37;99399.06;1082090;47;20367;-82
2022/10/21 13:55:00;;;;;;;4.20;1.38;;;;;;;19.22;74.36;99401.97;1082697;54;20133;-79
2022/10/21 13:56:06;;;;;;;4.22;1.52;;;;;;;19.12;74.04;99401.59;1086657;54;20065;-79
2022/10/21 13:57:08;;;;;;;4.70;1.42;;;;;;;19.20;74.19;99400.50;1085719;54;20042;-80
2022/10/21 13:58:18;;;;;;;5.18;1.30;;;;;;;19.03;73.85;99403.72;1086589;54;20086;-82
2022/10/21 13:59:32;;;;;;;4.20;1.60;;;;;;;19.10;73.75;99401.78;1086921;54;20042;-81
2022/10/21 14:00:40;;;;;;;3.45;1.30;;;;;;;18.98;74.46;99406.25;1086649;54;20038;-82
2022/10/21 14:02:04;;;;;;;;;;;;;;;;;;;;;
2022/10/21 14:03:34;;;;;;;6.03;1.38;;;;;;;19.02;73.11;99408.31;1087542;47;20062;-82
2022/10/21 14:04:46;;;;;;;4.63;1.58;;;;;;;19.04;73.41;99405.38;1086814;54;20046;-81
2022/10/21 14:06:16;;;;;;;6.38;1.25;;;;;;;19.05;74.15;99411.63;1087341;47;20098;-81
2022/10/21 14:07:21;;;;;;;5.75;1.60;;;;;;;18.99;74.33;99411.44;1086760;54;20034;-81
2022/10/21 14:08:53;;;;;;;4.10;1.67;;;;;;;19.02;73.69;99419.16;1086752;54;20034;-81
2022/10/21 14:10:14;;;;;;;4.22;1.75;;;;;;;18.97;74.26;99420.84;1086149;54;20053;-80
2022/10/21 14:11:23;;;;;;;4.88;1.40;;;;;;;19.06;73.91;99418.69;1086750;54;20027;-79
2022/10/21 14:12:28;;;;;;;4.95;1.77;;;;;;;18.93;73.75;99419.59;1087040;54;20069;-81
2022/10/21 14:13:38;;;;;;;5.05;1.50;;;;;;;19.00;73.35;99421.25;1087017;47;20054;-80
2022/10/21 14:14:48;;;;;;;4.65;1.73;;;;;;;18.88;73.70;99411.25;1087124;54;20671;-81
2022/10/21 14:15:55;;;;;;;3.78;1.40;;;;;;;18.96;74.10;99408.34;1085943;54;20041;-78
2022/10/21 14:17:00;;;;;;;6.03;1.98;;;;;;;18.85;73.65;99413.34;1085791;54;20050;-81
2022/10/21 14:18:06;;;;;;;4.30;1.50;;;;;;;18.89;73.78;99415.63;1086382;54;20566;-80
2022/10/21 14:19:20;;;;;;;3.17;1.00;;;;;;;19.05;73.18;99403.50;1086769;54;20053;-77
2022/10/21 14:20:26;;;;;;;4.30;1.23;;;;;;;19.07;73.07;99406.81;1085992;54;20094;-80
2022/10/21 14:21:32;;;;;;;7.90;2.38;;;;;;;18.99;73.28;99402.47;1085140;54;20038;-80
2022/10/21 14:22:47;;;;;;;3.03;1.02;;;;;;;19.04;72.55;99405.38;1087361;39;20461;-81
2022/10/21 14:23:52;;;;;;;3.65;1.40;;;;;;;19.14;72.75;99408.47;1086949;54;20069;-77
2022/10/21 14:25:00;;;;;;;2.80;1.08;;;;;;;19.17;72.88;99404.47;1087320;54;20038;-76
2022/10/21 14:26:09;;;;;;;3.38;1.27;;;;;;;19.20;72.48;99400.50;1087155;54;20035;-78
2022/10/21 14:27:12;;;;;;;5.55;1.40;;;;;;;19.26;72.52;99403.19;1087650;46;20027;-78
2022/10/21 14:28:17;;;;;;;5.72;1.58;;;;;;;19.01;72.63;99400.38;1088910;39;20673;-76
2022/10/21 14:29:23;;;;;;;3.97;1.40;;;;;;;19.12;72.26;99407.03;1087446;54;20046;-77
2022/10/21 14:32:27;;;;;;;5.32;1.50;;;;;;;18.67;72.53;99394.25;1087331;54;20034;-81
2022/10/21 14:33:29;;;;;;;3.95;1.40;;;;;;;18.82;72.35;99402.94;1087719;54;20042;-80
2022/10/21 14:34:56;;;;;;;3.15;1.30;;;;;;;18.94;71.81;99395.00;1088712;46;20030;-81
2022/10/21 14:36:24;;;;;;;;;;;;;;;;;;;;;
2022/10/21 14:37:38;;;;;;;6.15;1.83;;;;;;;18.94;71.92;99394.19;1087844;54;20057;-80
2022/10/21 15:16:59;;;;;;;4.13;1.30;;;;;;;18.31;73.76;99393.72;1086929;54;20027;-77
2022/10/21 15:18:02;;;;;;;3.85;1.30;;;;;;;18.39;73.35;99398.91;1087113;54;20074;-78
2022/10/21 15:19:13;;;;;;;4.22;1.38;;;;;;;18.31;73.53;99390.22;1086444;54;20129;-76
2022/10/21 15:20:21;;;;;;;6.38;1.52;;;;;;;18.21;74.21;99394.19;1086880;54;20038;-78
2022/10/21 15:21:35;;;;;;;5.65;1.75;;;;;;;18.29;74.03;99401.22;1086668;54;20106;-79
2022/10/21 15:22:39;;;;;;;4.72;1.42;;;;;;;18.24;73.88;99395.63;1087024;54;20030;-80
2022/10/21 15:23:49;;;;;;;3.42;1.35;;;;;;;18.39;73.14;99381.84;1087726;54;20049;-80
2022/10/21 15:24:56;;;;;;;4.45;1.60;;;;;;;18.33;73.64;99388.09;1087475;54;20423;-80
2022/10/21 15:26:02;;;;;;;4.07;1.70;;;;;;;18.30;74.04;99391.25;1088111;46;20039;-80
2022/10/21 15:27:09;;;;;;;6.03;1.80;;;;;;;18.33;73.53;99388.09;1087816;54;20056;-79
2022/10/21 15:28:17;;;;;;;4.03;1.55;;;;;;;18.26;74.05;99387.28;1087267;54;20042;-80
2022/10/21 15:29:28;;;;;;;4.28;1.85;;;;;;;18.31;73.76;99385.63;1087067;54;20061;-80
2022/10/21 15:30:34;;;;;;;4.00;1.65;;;;;;;18.29;73.38;99379.56;1087584;54;20042;-80
2022/10/21 15:31:38;;;;;;;6.00;2.20;;;;;;;18.37;73.66;99383.94;1089000;46;20014;-80
2022/10/21 15:32:46;;;;;;;5.03;1.63;;;;;;;18.43;73.04;99372.25;1088307;46;20057;-80
2022/10/21 15:34:28;;;;;;;4.03;1.50;;;;;;;18.23;73.31;99373.13;1087663;54;20047;-81
2022/10/21 15:35:33;;;;;;;6.82;1.73;;;;;;;18.37;73.36;99370.41;1087240;54;20034;-82
2022/10/21 15:37:24;;;;;;;5.40;1.70;;;;;;;18.14;73.75;99379.00;1087758;54;20094;-81
2022/10/21 15:38:26;;;;;;;4.53;1.48;;;;;;;18.08;74.05;99386.91;1086549;54;20065;-80
2022/10/21 15:39:47;;;;;;;;;;;;;;;;;;;;;
2022/10/21 15:40:59;;;;;;;3.80;1.48;;;;;;;18.04;74.27;99387.56;1087589;54;20039;-79
2022/10/21 15:43:59;;;;;;;6.15;1.70;;;;;;;17.98;74.35;99394.63;1087536;54;20038;-80
2022/10/21 15:45:01;;;;;;;4.10;1.70;;;;;;;18.08;73.94;99386.06;1086920;54;20049;-79
2022/10/21 15:46:05;;;;;;;4.05;1.50;;;;;;;18.14;73.93;99396.03;1087235;54;20086;-78
2022/10/21 15:47:11;;;;;;;4.55;1.38;;;;;;;18.12;73.97;99392.75;1087872;54;20034;-79
2022/10/21 15:48:16;;;;;;;4.97;1.80;;;;;;;18.17;73.72;99384.81;1090644;46;20126;-79
2022/10/21 15:49:22;;;;;;;4.88;1.40;;;;;;;18.07;73.78;99382.56;1089751;46;20042;-79
2022/10/21 15:50:25;;;;;;;2.97;1.35;;;;;;;18.18;73.42;99386.47;1088804;46;20030;-79
2022/10/21 15:51:30;;;;;;;4.43;1.50;;;;;;;18.21;73.56;99380.66;1087832;54;20034;-80
2022/10/21 15:52:43;;;;;;;4.10;1.55;;;;;;;18.10;73.88;99384.00;1087782;54;20035;-78
2022/10/21 15:53:45;;;;;;;5.28;1.63;;;;;;;18.23;73.58;99392.06;1087739;54;20030;-79
2022/10/21 15:54:49;;;;;;;5.03;1.80;;;;;;;18.06;74.03;99389.00;1087723;54;20114;-79
2022/10/21 15:55:51;;;;;;;5.80;1.63;;;;;;;18.03;74.21;99397.53;1087661;54;20038;-79
2022/10/21 15:56:56;;;;;;;6.57;2.28;;;;;;;18.26;73.19;99388.13;1087692;54;20031;-78
2022/10/21 15:57:58;;;;;;;4.38;2.00;;;;;;;18.11;74.02;99388.38;1088317;46;20038;-80
2022/10/21 15:59:02;;;;;;;4.22;1.85;;;;;;;18.07;73.74;99393.38;1089508;46;20038;-78
2022/10/21 16:00:19;;;;;;;3.90;1.80;;;;;;;17.98;74.11;99393.78;1087431;54;20031;-80
2022/10/21 16:01:20;;;;;;;3.53;1.73;;;;;;;17.98;74.21;99400.03;1087709;54;20057;-80
2022/10/21 16:03:45;;;;;;;5.25;1.80;;;;;;;18.07;73.53;99397.94;1085858;54;20042;-79
2022/10/21 16:04:51;;;;;;;4.55;1.48;;;;;;;18.01;73.85;99401.47;1085329;54;20077;-80
2022/10/21 16:06:00;;;;;;;5.35;1.60;;;;;;;17.81;74.45;99404.16;1086922;54;20039;-78
2022/10/21 16:07:07;;;;;;;4.05;1.70;;;;;;;17.96;74.38;99403.94;1087390;54;20034;-80
2022/10/21 16:08:13;;;;;;;5.70;1.83;;;;;;;17.96;74.30;99409.34;1087914;54;20030;-79
2022/10/21 16:09:18;;;;;;;3.97;1.38;;;;;;;17.85;74.23;99417.06;1087753;54;20034;-79
2022/10/21 16:10:29;;;;;;;6.07;1.50;;;;;;;17.89;74.09;99409.38;1089034;46;20038;-80
2022/10/21 16:11:32;;;;;;;4.15;1.48;;;;;;;18.07;73.76;99408.75;1089481;46;20106;-80
2022/10/21 16:12:36;;;;;;;3.60;1.60;;;;;;;18.01;73.90;99406.88;1087899;54;20037;-80
2022/10/21 16:13:38;;;;;;;3.90;1.80;;;;;;;18.06;73.93;99410.63;1088297;46;20030;-81
2022/10/21 16:14:43;;;;;;;3.05;1.52;;;;;;;18.17;73.08;99402.94;1087862;54;20038;-80
2022/10/21 16:15:47;;;;;;;3.53;1.35;;;;;;;18.15;73.13;99397.72;1087673;54;20026;-80
2022/10/21 16:16:55;;;;;;;4.03;1.58;;;;;;;18.16;73.03;99393.97;1087515;54;20042;-80
2022/10/21 16:17:58;;;;;;;4.63;1.73;;;;;;;18.15;73.12;99395.00;1087657;54;20061;-81
2022/10/21 16:21:06;;;;;;;3.75;1.30;;;;;;;18.09;73.11;99391.25;1087804;54;20078;-81
2022/10/21 16:22:21;;;;;;;3.97;1.73;;;;;;;18.09;73.05;99393.97;1088854;46;20031;-80
2022/10/21 16:23:54;;;;;;;6.57;1.98;;;;;;;18.07;73.08;99392.53;1089082;46;20057;-82
2022/10/21 16:25:01;;;;;;;4.53;1.60;;;;;;;18.06;73.32;99389.00;1087953;54;20041;-80
2022/10/21 16:26:08;;;;;;;4.35;1.67;;;;;;;18.11;73.22;99382.97;1087660;54;20034;-79
2022/10/21 16:27:14;;;;;;;3.33;1.52;;;;;;;18.01;73.23;99388.78;1087499;54;20034;-79
2022/10/21 16:28:16;;;;;;;4.22;1.75;;;;;;;18.11;73.04;99385.66;1087387;54;20042;-78
2022/10/21 16:29:24;;;;;;;4.20;1.52;;;;;;;18.09;72.68;99382.34;1086883;54;20046;-79
2022/10/21 16:30:27;;;;;;;3.92;1.70;;;;;;;18.08;73.00;99386.91;1087258;54;20014;-79
2022/10/21 16:31:32;;;;;;;3.75;1.40;;;;;;;17.91;73.71;99391.88;1087107;54;20034;-79
2022/10/21 16:32:34;;;;;;;4.32;1.50;;;;;;;17.97;73.54;99392.97;1087005;54;20041;-80
2022/10/21 16:33:38;;;;;;;5.53;1.77;;;;;;;18.06;72.86;99388.16;1087635;46;20641;-79
2022/10/21 16:34:42;;;;;;;5.15;1.60;;;;;;;18.08;73.12;99397.75;1087336;54;20034;-79
2022/10/21 16:35:47;;;;;;;3.47;1.50;;;;;;;18.02;73.16;99395.03;1087555;47;20041;-79
2022/10/21 16:36:51;;;;;;;2.90;1.20;;;;;;;18.11;72.68;99392.94;1087264;54;20061;-79
2022/10/21 16:37:56;;;;;;;4.40;1.67;;;;;;;18.10;72.68;99394.81;1087099;54;20038;-79
2022/10/21 16:39:01;;;;;;;4.15;1.60;;;;;;;18.09;72.80;99396.66;1087470;46;20068;-79
2022/10/21 16:40:21;;;;;;;5.50;2.00;;;;;;;18.11;72.11;99404.59;1087484;54;20073;-79
2022/10/21 16:41:27;;;;;;;5.10;1.60;;;;;;;18.09;72.69;99407.50;1086313;54;20034;-79
2022/10/21 16:42:29;;;;;;;5.30;2.13;;;;;;;18.03;72.89;99402.13;1086436;39;20452;-78
2022/10/21 16:43:33;;;;;;;3.88;1.42;;;;;;;18.04;72.85;99411.88;1086267;54;20121;-79
2022/10/21 16:44:34;;;;;;;3.83;1.50;;;;;;;18.13;72.64;99409.78;1085231;54;20072;-79
2022/10/21 16:45:46;;;;;;;3.53;1.40;;;;;;;18.03;72.53;99415.63;1085978;54;20039;-80
2022/10/21 16:46:49;;;;;;;4.93;1.85;;;;;;;17.88;73.34;99416.63;1085751;54;20039;-78
2022/10/21 16:47:57;;;;;;;5.05;1.90;;;;;;;18.06;72.73;99417.91;1085236;54;20110;-79
2022/10/21 16:49:01;;;;;;;4.88;1.80;;;;;;;18.08;72.72;99413.97;1085578;54;20105;-79
2022/10/21 16:50:08;;;;;;;5.63;1.75;;;;;;;17.99;73.05;99419.78;1086748;54;20114;-79
2022/10/21 16:51:11;;;;;;;4.95;1.95;;;;;;;18.06;72.92;99420.59;1087023;54;20034;-78
2022/10/21 16:52:21;;;;;;;3.88;1.65;;;;;;;18.03;72.74;99421.03;1087393;54;20037;-78
2022/10/21 16:53:25;;;;;;;4.05;1.40;;;;;;;18.05;72.74;99418.94;1087509;54;20041;-78
2022/10/21 16:54:30;;;;;;;4.32;1.58;;;;;;;17.97;72.63;99421.84;1087599;54;20163;-78
2022/10/21 16:55:34;;;;;;;5.82;1.63;;;;;;;18.04;72.53;99417.31;1087228;54;20042;-79
2022/10/21 16:56:38;;;;;;;3.95;1.50;;;;;;;17.95;72.82;99418.53;1087014;54;20026;-79
2022/10/21 16:57:40;;;;;;;3.35;1.48;;;;;;;18.01;72.56;99409.59;1087034;54;20552;-80
2022/10/21 16:58:44;;;;;;;4.95;1.40;;;;;;;18.08;72.57;99413.13;1086945;54;20042;-79
2022/10/21 16:59:46;;;;;;;3.17;1.30;;;;;;;17.92;72.42;99415.19;1086979;54;20034;-79
2022/10/21 17:00:50;;;;;;;3.58;1.48;;;;;;;18.00;72.62;99400.63;1087248;54;20030;-78
2022/10/21 17:01:54;;;;;;;3.33;1.42;;;;;;;17.99;72.38;99408.97;1086633;54;20054;-78
2022/10/21 17:02:58;;;;;;;3.10;1.40;;;;;;;18.03;72.52;99399.41;1087276;54;20035;-78
2022/10/21 17:04:02;;;;;;;4.25;1.50;;;;;;;17.90;72.41;99406.44;1086221;54;20042;-77